Leeward Point Field
MUGM : rendu visible

Aérodrome :











RETROUVEZ-NOUS SUR...

 
LOGIN :

S'inscrire | Disclaimer

   EN    FR    IT 

 









Légende :    VFR   VFR Marginal   IFR   IFR Intensif   IFR Très Intensif
Visi : 
Plafond : 
>= 8 km
>= 3000ft
5 à 8 km
1000 à 3000 ft
1500m à 5 km
500 à 1000 ft
800 à 1500m
200 à 500 ft
< 800m
< 200 ft
Symboles :   Orages  Brouillard  Fortes neiges  Fortes précipitations  Vent > 20 kt






- Altitude de l'aérodrome : 56 ft
- Code IATA : NBW


MUGM - Leeward Point Field

DERNIER METAR :
  • 281656Z 18007KT 9999 FEW030 SCT250 28/21 A2996 RMK SLP145 T02780211

METARs EXPIRÉS :
  • 281556Z 05003KT 9999 FEW030 SCT250 28/20 A2998 RMK SLP151 T02830200
  • 281456Z 36005KT 9999 SCT060 SCT250 27/21 A2999 RMK SLP157 T02670206 51012

TAF TAF MUGM
Valide du 28 à 15h jusqu'au 29 à 15h UTC


2815/2915 34009KT 9999 SCT030 SCT250 QNH2992INS
BECMG 2816/2818 21010KT 9999 SCT030 SCT250 QNH2988INS
BECMG 2901/2903 32007KT 9999 FEW030 QNH2994INS
FM290400 35006KT 9999 FEW030 QNH2992INS T28/2817Z T19/2911Z FN20069



MET'MAP, la Météo Aéronautique d'un coup d'oeil ! - Copyright ORBIFLY Décembre 2007 - Disclaimer

ORBIFLY MET'MAP TEAM :

Programmation & Développement : Alexandra Zaïnal
Sur une idée originale de : Baudouin d'Aumeries
Assistance à la programmation : Marc-Olivier Méhu
Soutien technique & logistique : Manuel Goepfert

Contact : metmap@orbifly.com




SOURCES & CREDITS :

   NOAA       Earth
Advisory